Pagina principale
METAR-TAF:

METAR-TAF

Aeroporti :

Reggio Calabria, Italia

Aeroporto di Reggio Calabria

latitudine: 38-04N, longitudine: 015-39E, altezza: 11 m

Osservazione

Il bollettino è stato emesso 1 ora e 22 minuti fa, alle 06:50 UTC
Vento 9 kt da nord
Temperature 22°C
Umidità 53%
Pressione 1017 hPa
Visibilità 10 km o più
nessuna nube inferiore a 1500 m e nessun cumulonembo

METAR: LICR 270650Z 36009KT CAVOK 22/12 Q1017

Ora: 10:12 (08:12 UTC)

Previsione

Il bollettino è stato emesso 3 ore e 12 minuti fa, alle 05:00 UTC
Previsione valida dal 27 alle 06 UTC al 28 alle 06 UTC
Vento 5 kt da direzioni variabili
Visibilità 10 km o più
Poco nuvoloso ad un'altezza di 3000 ft
Evoluzione graduale
dal 27 alle 07 UTC al 27 alle 09 UTC
Vento 12 kt da nord

TAF: LICR 270500Z 2706/2806 VRB05KT 9999 FEW030 BECMG 2707/2709 01012KT

Osservazioni e previsioni meteorologiche di più di 4000 aeroporti (messaggi METAR e TAF).

Le stazioni disponibili sono rappresentate dai dischi gialli e rossi sulla carta.

Puntare il mouse per vedere il nome della stazione.

Clicca sopra per visualizzare le osservazioni e previsioni meteorologiche.

Per cambiare la mappa : fare clic sui pulsanti verdi con una croce nera per ingrandire, il pulsante verde con un trattino per diminuire, o sulla freccia verde per le mappe adiacenti.


METAR-TAF: